Time;durP1;ratioP1;P1;durP2;ratioP2;P2;SDS_P1;SDS_P2;PMS_P1;PMS_P2;Temp;Humidity;BMP_temperature;BMP_pressure;BME280_temperature;BME280_humidity;BME280_pressure;Samples;Min_cycle;Max_cycle;Signal;HPM_P1;HPM_P2
2022/08/28 00:01:26;;;;;;;10.93;3.50;;;16.10;99.90;;;;;;4867365;29;20254;-52
2022/08/28 00:03:54;;;;;;;11.67;4.00;;;16.10;99.90;;;;;;4862239;29;20728;-52
2022/08/28 00:06:24;;;;;;;9.90;3.67;;;16.10;99.90;;;;;;4866742;29;20250;-55
2022/08/28 00:08:52;;;;;;;8.33;3.37;;;16.10;99.90;;;;;;4866924;29;20721;-53
2022/08/28 00:11:20;;;;;;;8.33;3.53;;;16.00;99.90;;;;;;4851958;29;20233;-54
2022/08/28 00:13:49;;;;;;;9.20;3.30;;;16.00;99.90;;;;;;4869800;29;20258;-53
2022/08/28 00:16:17;;;;;;;10.50;3.87;;;16.00;99.90;;;;;;4865669;29;20234;-52
2022/08/28 00:18:46;;;;;;;8.53;3.23;;;16.00;99.90;;;;;;4865731;29;20238;-52
2022/08/28 00:21:14;;;;;;;10.17;3.80;;;16.00;99.90;;;;;;4864552;29;20261;-50
2022/08/28 00:23:43;;;;;;;7.03;3.17;;;15.90;99.90;;;;;;4863756;29;20242;-52
2022/08/28 00:27:51;;;;;;;8.57;3.50;;;15.90;99.90;;;;;;4867709;29;21009;-52
2022/08/28 00:28:59;;;;;;;9.60;3.43;;;15.90;99.90;;;;;;4866774;29;20639;-54
2022/08/28 00:31:28;;;;;;;10.50;3.80;;;15.90;99.90;;;;;;4866375;29;20760;-52
2022/08/28 00:33:56;;;;;;;8.77;3.53;;;15.90;99.90;;;;;;4857454;29;20520;-51
2022/08/28 00:36:24;;;;;;;5.97;3.07;;;15.80;99.90;;;;;;4870386;29;20261;-53
2022/08/28 00:38:53;;;;;;;9.83;3.93;;;15.90;99.90;;;;;;4870329;29;20240;-53
2022/08/28 00:41:22;;;;;;;9.57;3.27;;;15.80;99.90;;;;;;4871176;29;20777;-53
2022/08/28 00:44:07;;;;;;;7.87;3.40;;;15.80;99.90;;;;;;4868056;29;20249;-54
2022/08/28 00:46:36;;;;;;;7.73;3.50;;;15.80;99.90;;;;;;4859719;29;20242;-53
2022/08/28 00:49:05;;;;;;;8.80;3.50;;;15.80;99.90;;;;;;4865413;29;20242;-54
2022/08/28 00:54:22;;;;;;;7.90;3.43;;;15.70;99.90;;;;;;4862641;29;20240;-53
2022/08/28 00:56:50;;;;;;;8.00;3.17;;;15.70;99.90;;;;;;4869879;29;20241;-52
2022/08/28 00:59:21;;;;;;;7.90;3.43;;;15.70;99.90;;;;;;4867121;29;20241;-52
2022/08/28 01:01:52;;;;;;;11.67;3.40;;;15.70;99.90;;;;;;4865019;29;20726;-54
2022/08/28 01:04:22;;;;;;;9.60;3.73;;;15.60;99.90;;;;;;4866973;29;20246;-51
2022/08/28 01:06:53;;;;;;;8.27;3.33;;;15.60;99.90;;;;;;4867417;29;20244;-51
2022/08/28 01:09:26;;;;;;;7.60;3.10;;;15.60;99.90;;;;;;4864740;29;20715;-52
2022/08/28 01:11:58;;;;;;;6.70;3.33;;;15.60;99.90;;;;;;4866525;29;20703;-53
2022/08/28 01:14:28;;;;;;;7.80;3.30;;;15.60;99.90;;;;;;4863829;29;20320;-53
2022/08/28 01:16:57;;;;;;;8.83;3.63;;;15.50;99.90;;;;;;4866325;29;21127;-53
2022/08/28 01:19:31;;;;;;;6.80;3.10;;;15.50;99.90;;;;;;4866257;29;20236;-52
2022/08/28 01:22:12;;;;;;;7.80;3.00;;;15.50;99.90;;;;;;4862012;29;20259;-54
2022/08/28 01:24:44;;;;;;;7.93;2.73;;;15.50;99.90;;;;;;4864072;29;20244;-51
2022/08/28 01:27:12;;;;;;;6.57;2.80;;;15.50;99.90;;;;;;4863980;29;20717;-54
2022/08/28 01:29:41;;;;;;;7.67;3.00;;;15.40;99.90;;;;;;4861096;29;20245;-54
2022/08/28 01:32:25;;;;;;;10.30;3.53;;;15.40;99.90;;;;;;4863954;29;20585;-53
2022/08/28 01:34:53;;;;;;;7.87;3.43;;;15.40;99.90;;;;;;4863398;29;20234;-51
2022/08/28 01:37:21;;;;;;;7.30;2.80;;;15.40;99.90;;;;;;4850473;29;20250;-50
2022/08/28 01:39:51;;;;;;;7.50;2.90;;;15.40;99.90;;;;;;4861790;29;20229;-53
2022/08/28 01:42:19;;;;;;;9.70;3.53;;;15.40;99.90;;;;;;4865607;29;20939;-49
2022/08/28 01:44:48;;;;;;;10.00;3.13;;;15.40;99.90;;;;;;4854371;29;20707;-53
2022/08/28 01:47:16;;;;;;;6.47;2.97;;;15.40;99.90;;;;;;4863692;29;20237;-50
2022/08/28 01:49:44;;;;;;;7.20;2.93;;;15.40;99.90;;;;;;4862767;29;20242;-53
2022/08/28 01:52:12;;;;;;;6.73;2.97;;;15.30;99.90;;;;;;4862999;29;20235;-53
2022/08/28 01:54:41;;;;;;;7.87;3.43;;;15.30;99.90;;;;;;4863632;29;20260;-53
2022/08/28 01:57:10;;;;;;;6.10;3.07;;;15.30;99.90;;;;;;4863266;29;20810;-50
2022/08/28 01:59:38;;;;;;;6.30;3.10;;;15.30;99.90;;;;;;4858488;29;20243;-53
2022/08/28 02:02:09;;;;;;;9.47;3.33;;;15.30;99.90;;;;;;4861450;29;20321;-50
2022/08/28 02:04:37;;;;;;;7.40;3.00;;;15.30;99.90;;;;;;4866011;29;20336;-52
2022/08/28 02:07:05;;;;;;;8.17;3.43;;;15.30;99.90;;;;;;4868104;29;20345;-51
2022/08/28 02:09:33;;;;;;;8.60;3.40;;;15.30;99.90;;;;;;4860945;29;20238;-54
2022/08/28 02:12:02;;;;;;;7.73;3.50;;;15.20;99.90;;;;;;4868345;29;20707;-51
2022/08/28 02:14:32;;;;;;;7.10;2.90;;;15.20;99.90;;;;;;4866263;29;20318;-53
2022/08/28 02:17:00;;;;;;;7.37;2.87;;;15.20;99.90;;;;;;4866116;29;20249;-52
2022/08/28 02:19:28;;;;;;;5.70;2.70;;;15.20;99.90;;;;;;4867444;29;20244;-54
2022/08/28 02:21:56;;;;;;;7.57;3.30;;;15.20;99.90;;;;;;4868038;29;20251;-52
2022/08/28 02:24:24;;;;;;;7.03;2.97;;;15.20;99.90;;;;;;4868484;29;20244;-49
2022/08/28 02:26:52;;;;;;;8.00;2.90;;;15.20;99.90;;;;;;4869112;29;20242;-52
2022/08/28 02:29:20;;;;;;;7.73;2.87;;;15.10;99.90;;;;;;4854039;29;20230;-53
2022/08/28 02:31:50;;;;;;;6.43;2.97;;;15.20;99.90;;;;;;4872995;29;20730;-49
2022/08/28 02:34:18;;;;;;;8.03;3.10;;;15.20;99.90;;;;;;4872808;29;20710;-53
2022/08/28 02:36:46;;;;;;;6.97;2.83;;;15.10;99.90;;;;;;4873329;29;20237;-49
2022/08/28 02:39:14;;;;;;;7.00;3.00;;;15.10;99.90;;;;;;4871837;29;21002;-50
2022/08/28 02:41:42;;;;;;;8.27;3.17;;;15.10;99.90;;;;;;4871771;29;20253;-51
2022/08/28 02:44:10;;;;;;;8.93;3.80;;;15.10;99.90;;;;;;4866115;29;20249;-50
2022/08/28 02:46:39;;;;;;;6.80;3.13;;;15.10;99.90;;;;;;4866267;29;20253;-51
2022/08/28 02:49:08;;;;;;;7.07;2.90;;;15.20;99.90;;;;;;4864687;29;20230;-52
2022/08/28 02:51:36;;;;;;;7.30;3.00;;;15.20;99.90;;;;;;4860363;29;20234;-51
2022/08/28 02:54:04;;;;;;;7.23;3.30;;;15.20;99.90;;;;;;4872201;29;20243;-51
2022/08/28 02:56:33;;;;;;;7.00;2.73;;;15.30;99.90;;;;;;4867030;29;20236;-51
2022/08/28 02:59:01;;;;;;;10.00;3.30;;;15.30;99.90;;;;;;4857885;29;20728;-52
2022/08/28 03:01:29;;;;;;;6.67;3.27;;;15.20;99.90;;;;;;4836387;29;20241;-52
2022/08/28 03:03:57;;;;;;;9.23;3.60;;;15.20;99.90;;;;;;4868652;29;20249;-50
2022/08/28 03:06:27;;;;;;;8.40;3.30;;;15.30;99.90;;;;;;4871378;29;20243;-51
2022/08/28 03:08:55;;;;;;;8.50;2.93;;;15.30;99.90;;;;;;4870256;29;20372;-50
2022/08/28 03:11:23;;;;;;;8.73;2.80;;;15.20;99.90;;;;;;4871826;29;20245;-52
2022/08/28 03:13:52;;;;;;;7.40;3.00;;;15.20;99.90;;;;;;4871332;29;20242;-49
2022/08/28 03:16:20;;;;;;;7.37;2.90;;;15.20;99.90;;;;;;4871708;29;20241;-51
2022/08/28 03:18:48;;;;;;;7.53;3.07;;;15.10;99.90;;;;;;4867557;29;20242;-50
2022/08/28 03:21:16;;;;;;;9.77;3.13;;;15.10;99.90;;;;;;4867265;29;20254;-53
2022/08/28 03:23:46;;;;;;;8.33;3.27;;;15.10;99.90;;;;;;4870800;29;20234;-53
2022/08/28 03:26:17;;;;;;;7.77;3.20;;;15.10;99.90;;;;;;4868418;29;20249;-51
2022/08/28 03:28:48;;;;;;;5.53;3.00;;;15.10;99.90;;;;;;4863097;29;21233;-51
2022/08/28 03:31:19;;;;;;;7.07;3.17;;;15.10;99.90;;;;;;4865816;29;20277;-52
2022/08/28 03:33:48;;;;;;;6.63;3.20;;;15.10;99.90;;;;;;4867750;29;20587;-52
2022/08/28 03:36:20;;;;;;;7.67;3.20;;;15.20;99.90;;;;;;4864224;29;20244;-51
2022/08/28 03:38:50;;;;;;;9.33;3.20;;;15.20;99.90;;;;;;4865840;29;20250;-51
2022/08/28 03:41:21;;;;;;;11.37;2.93;;;15.20;99.90;;;;;;4868798;29;20242;-50
2022/08/28 03:43:50;;;;;;;7.90;3.27;;;15.20;99.90;;;;;;4867751;29;20245;-52
2022/08/28 03:46:22;;;;;;;8.77;3.00;;;15.30;99.90;;;;;;4865188;29;20246;-52
2022/08/28 03:48:52;;;;;;;8.47;2.97;;;15.20;99.90;;;;;;4865478;29;20246;-52
2022/08/28 03:51:23;;;;;;;7.13;3.03;;;15.30;99.90;;;;;;4867337;29;20250;-50
2022/08/28 03:53:58;;;;;;;7.13;3.33;;;15.30;99.90;;;;;;4867872;29;20257;-53
2022/08/28 03:56:28;;;;;;;10.07;2.93;;;15.20;99.90;;;;;;4866351;29;20324;-52
2022/08/28 03:59:00;;;;;;;8.20;2.90;;;15.30;99.90;;;;;;4866421;29;20245;-54
2022/08/28 04:01:28;;;;;;;10.80;3.53;;;15.30;99.90;;;;;;4863923;29;20782;-50
2022/08/28 04:03:57;;;;;;;6.60;2.90;;;15.30;99.90;;;;;;4865663;29;20241;-52
2022/08/28 04:06:26;;;;;;;9.63;2.77;;;15.30;99.90;;;;;;4861853;29;20250;-51
2022/08/28 04:08:54;;;;;;;9.87;3.17;;;15.30;99.90;;;;;;4867308;29;20703;-52
2022/08/28 04:11:28;;;;;;;8.87;2.90;;;15.30;99.90;;;;;;4867700;29;20241;-53
2022/08/28 04:13:57;;;;;;;11.00;3.03;;;15.30;99.90;;;;;;4865826;29;20240;-50
2022/08/28 04:16:25;;;;;;;6.03;2.90;;;15.30;99.90;;;;;;4868706;29;20226;-51
2022/08/28 04:18:54;;;;;;;7.73;2.77;;;15.20;99.90;;;;;;4865237;29;20239;-50
2022/08/28 04:21:24;;;;;;;9.63;2.90;;;15.20;99.90;;;;;;4865887;29;20749;-53
2022/08/28 04:23:53;;;;;;;8.97;3.03;;;15.20;99.90;;;;;;4867110;29;20260;-51
2022/08/28 04:26:23;;;;;;;9.20;2.83;;;15.20;99.90;;;;;;4866252;29;20244;-51
2022/08/28 04:28:54;;;;;;;7.13;2.50;;;15.10;99.90;;;;;;4857772;29;20774;-52
2022/08/28 04:31:23;;;;;;;8.23;3.03;;;15.10;99.90;;;;;;4853913;29;20245;-53
2022/08/28 04:34:00;;;;;;;10.37;2.93;;;15.10;99.90;;;;;;4863485;29;20238;-54
2022/08/28 04:36:28;;;;;;;7.03;2.50;;;15.10;99.90;;;;;;4880882;29;20314;-51
2022/08/28 04:38:57;;;;;;;9.17;3.00;;;15.10;99.90;;;;;;4883885;29;20237;-51
2022/08/28 04:41:26;;;;;;;7.40;2.60;;;15.10;99.90;;;;;;4885963;29;20224;-51
2022/08/28 04:43:57;;;;;;;9.17;2.97;;;15.10;99.90;;;;;;4884440;29;20230;-52
2022/08/28 04:46:25;;;;;;;10.17;2.97;;;15.10;99.90;;;;;;4886385;29;20237;-52
2022/08/28 04:48:58;;;;;;;8.07;2.87;;;15.10;99.90;;;;;;4884033;29;20241;-51
2022/08/28 04:51:27;;;;;;;10.10;2.97;;;15.10;99.90;;;;;;4876269;29;20650;-50
2022/08/28 04:53:55;;;;;;;9.17;2.63;;;15.20;99.90;;;;;;4868735;29;20253;-53
2022/08/28 04:56:23;;;;;;;10.90;2.77;;;15.20;99.90;;;;;;4859134;29;21414;-50
2022/08/28 04:58:52;;;;;;;8.73;2.80;;;15.20;99.90;;;;;;4866660;29;20284;-53
2022/08/28 05:01:24;;;;;;;10.77;3.30;;;15.30;99.90;;;;;;4865635;29;20248;-53
2022/08/28 05:03:56;;;;;;;9.33;2.87;;;15.30;99.90;;;;;;4864044;29;20866;-52
2022/08/28 05:06:26;;;;;;;5.80;2.60;;;15.30;99.90;;;;;;4884608;29;20263;-53
2022/08/28 05:08:57;;;;;;;10.13;3.00;;;15.40;99.90;;;;;;4882265;29;20230;-52
2022/08/28 05:11:27;;;;;;;10.03;2.93;;;15.50;99.90;;;;;;4884874;29;20245;-50
2022/08/28 05:14:03;;;;;;;7.07;2.67;;;15.50;99.90;;;;;;4882461;29;20284;-53
2022/08/28 05:16:33;;;;;;;7.07;2.70;;;15.60;99.90;;;;;;4880837;29;20261;-52
2022/08/28 05:19:03;;;;;;;11.27;2.90;;;15.60;99.90;;;;;;4851841;29;20374;-53
2022/08/28 05:21:31;;;;;;;8.40;3.00;;;15.70;99.90;;;;;;4848144;29;20261;-53
2022/08/28 05:23:59;;;;;;;9.17;3.00;;;15.70;99.90;;;;;;4862015;29;20226;-52
2022/08/28 05:26:28;;;;;;;7.50;2.80;;;15.80;99.90;;;;;;4870643;29;20614;-51
2022/08/28 05:28:58;;;;;;;5.77;2.50;;;16.00;99.90;;;;;;4868455;29;20705;-52
2022/08/28 05:31:27;;;;;;;9.27;2.80;;;16.10;99.90;;;;;;4873602;29;20245;-52
2022/08/28 05:33:58;;;;;;;8.17;3.07;;;16.30;99.90;;;;;;4883490;29;20252;-53
2022/08/28 05:36:28;;;;;;;8.07;2.70;;;16.40;99.90;;;;;;4885211;29;20305;-49
2022/08/28 05:39:01;;;;;;;6.67;2.63;;;16.50;99.90;;;;;;4881761;29;20246;-54
2022/08/28 05:41:31;;;;;;;7.43;2.50;;;16.70;99.90;;;;;;4888566;29;20609;-52
2022/08/28 05:44:00;;;;;;;12.13;3.27;;;16.70;99.90;;;;;;4888085;29;20233;-50
2022/08/28 05:46:28;;;;;;;7.97;2.60;;;16.70;99.90;;;;;;4889342;29;20221;-52
2022/08/28 05:48:59;;;;;;;7.00;2.20;;;16.70;99.90;;;;;;4886950;29;20233;-51
2022/08/28 05:51:28;;;;;;;6.07;2.63;;;16.90;99.90;;;;;;4888557;29;20257;-50
2022/08/28 05:53:56;;;;;;;8.27;2.70;;;16.90;99.90;;;;;;4888003;29;20605;-53
2022/08/28 05:56:28;;;;;;;6.20;2.60;;;17.00;99.90;;;;;;4888363;29;21168;-52
2022/08/28 05:58:57;;;;;;;6.73;2.47;;;17.10;99.90;;;;;;4887428;29;20253;-53
2022/08/28 06:01:27;;;;;;;7.20;2.40;;;17.20;99.90;;;;;;4889061;29;20583;-52
2022/08/28 06:03:59;;;;;;;6.67;2.57;;;17.30;99.90;;;;;;4888128;29;20279;-50
2022/08/28 06:06:30;;;;;;;7.70;2.20;;;17.50;99.90;;;;;;4886621;29;20245;-54
2022/08/28 06:09:00;;;;;;;5.93;2.27;;;17.60;99.90;;;;;;4886034;29;20641;-54
2022/08/28 06:11:29;;;;;;;9.30;2.70;;;17.80;99.90;;;;;;4886986;29;20273;-53
2022/08/28 06:13:59;;;;;;;6.43;2.40;;;17.90;99.90;;;;;;4887134;29;20269;-53
2022/08/28 06:16:29;;;;;;;6.93;2.50;;;18.10;99.90;;;;;;4886880;29;20230;-53
2022/08/28 06:18:59;;;;;;;6.47;2.73;;;18.10;99.90;;;;;;4885939;29;20390;-53
2022/08/28 06:21:27;;;;;;;8.03;2.30;;;18.20;99.90;;;;;;4884469;29;20251;-54
2022/08/28 06:23:56;;;;;;;6.60;2.20;;;18.30;99.90;;;;;;4886602;29;20336;-53
2022/08/28 06:26:24;;;;;;;6.57;2.37;;;18.40;99.90;;;;;;4885972;29;20374;-53
2022/08/28 06:28:52;;;;;;;5.33;2.40;;;18.60;99.90;;;;;;4884507;29;20265;-53
2022/08/28 06:31:20;;;;;;;8.20;2.70;;;18.70;99.90;;;;;;4866629;29;20290;-53
2022/08/28 06:33:54;;;;;;;6.60;2.33;;;18.80;99.90;;;;;;4865798;29;20237;-53
2022/08/28 06:36:26;;;;;;;10.00;2.40;;;18.90;99.90;;;;;;4866632;29;20901;-53
2022/08/28 06:38:56;;;;;;;7.90;2.60;;;18.90;99.90;;;;;;4865993;29;20323;-53
2022/08/28 06:41:26;;;;;;;8.93;2.43;;;18.90;99.90;;;;;;4865806;29;20252;-52
2022/08/28 06:43:54;;;;;;;5.67;2.10;;;19.00;99.90;;;;;;4866195;29;20330;-51
2022/08/28 06:46:23;;;;;;;6.90;2.50;;;19.10;99.90;;;;;;4868247;29;20250;-49
2022/08/28 06:48:52;;;;;;;7.83;2.33;;;19.10;99.90;;;;;;4868241;29;20244;-54
2022/08/28 06:51:20;;;;;;;7.10;2.90;;;19.20;99.90;;;;;;4866091;29;20246;-52
2022/08/28 06:53:53;;;;;;;6.40;2.60;;;19.30;99.90;;;;;;4867854;29;20244;-53
2022/08/28 06:56:21;;;;;;;7.63;2.50;;;19.40;99.90;;;;;;4855154;29;20240;-51
2022/08/28 06:58:56;;;;;;;6.57;2.47;;;19.60;99.90;;;;;;4867922;29;20251;-49
2022/08/28 07:01:27;;;;;;;7.03;2.60;;;19.90;99.90;;;;;;4868511;29;20244;-50
2022/08/28 07:03:58;;;;;;;7.83;2.77;;;20.10;99.90;;;;;;4868006;29;20618;-51
2022/08/28 07:06:30;;;;;;;9.10;2.80;;;20.30;99.90;;;;;;4860666;29;20237;-50
2022/08/28 07:08:59;;;;;;;9.00;2.90;;;20.50;99.90;;;;;;4865635;29;20240;-53
2022/08/28 07:11:30;;;;;;;6.20;2.47;;;20.50;99.90;;;;;;4867527;29;20236;-51
2022/08/28 07:14:00;;;;;;;6.97;2.43;;;20.40;99.90;;;;;;4863451;29;20594;-53
2022/08/28 07:16:32;;;;;;;7.40;2.30;;;20.50;99.90;;;;;;4843189;29;20249;-52
2022/08/28 07:19:03;;;;;;;7.07;2.57;;;20.80;99.90;;;;;;4862153;29;20286;-52
2022/08/28 07:21:33;;;;;;;5.03;2.33;;;21.10;99.90;;;;;;4866454;29;20258;-53
2022/08/28 07:24:08;;;;;;;5.20;2.30;;;21.30;99.90;;;;;;4865222;29;20225;-52
2022/08/28 07:26:39;;;;;;;8.73;2.60;;;21.50;99.90;;;;;;4848627;29;20256;-50
2022/08/28 07:29:07;;;;;;;6.13;2.77;;;21.60;99.90;;;;;;4865113;29;20711;-52
2022/08/28 07:31:39;;;;;;;8.00;2.93;;;21.80;99.90;;;;;;4869848;29;20257;-52
2022/08/28 07:34:09;;;;;;;6.10;2.53;;;21.90;99.90;;;;;;4866437;29;20241;-53
2022/08/28 07:36:37;;;;;;;8.33;2.50;;;22.20;99.90;;;;;;4857076;29;20363;-52
2022/08/28 07:39:08;;;;;;;7.77;2.57;;;22.50;99.90;;;;;;4867865;29;20710;-53
2022/08/28 07:41:41;;;;;;;8.40;2.50;;;22.50;99.90;;;;;;4871163;29;20320;-50
2022/08/28 07:47:01;;;;;;;6.63;2.73;;;22.70;99.90;;;;;;4870101;29;20263;-53
2022/08/28 07:49:30;;;;;;;7.80;2.87;;;23.00;99.90;;;;;;4870457;29;20242;-54
2022/08/28 07:51:58;;;;;;;6.47;2.30;;;23.10;99.90;;;;;;4870651;29;20332;-52
2022/08/28 07:54:27;;;;;;;8.23;2.90;;;23.10;99.90;;;;;;4865313;29;20662;-53
2022/08/28 07:56:57;;;;;;;7.30;2.50;;;22.50;99.90;;;;;;4867141;29;20244;-53
2022/08/28 07:59:27;;;;;;;8.00;2.67;;;22.10;99.90;;;;;;4868131;29;20245;-52
2022/08/28 08:02:02;;;;;;;7.70;2.77;;;21.80;99.90;;;;;;4865537;29;20237;-53
2022/08/28 08:04:30;;;;;;;6.80;2.67;;;21.40;99.90;;;;;;4867314;29;20320;-53
2022/08/28 08:06:58;;;;;;;7.33;2.37;;;21.00;99.90;;;;;;4869624;29;20242;-53
2022/08/28 08:09:27;;;;;;;8.87;2.70;;;20.80;99.90;;;;;;4866355;29;20802;-52
2022/08/28 08:11:56;;;;;;;9.43;2.73;;;20.90;99.90;;;;;;4866525;29;20259;-53
2022/08/28 08:14:25;;;;;;;9.83;2.80;;;21.40;99.90;;;;;;4863598;29;20246;-51
2022/08/28 08:16:53;;;;;;;7.33;2.57;;;22.00;99.90;;;;;;4874559;29;20236;-53
2022/08/28 08:19:21;;;;;;;8.07;2.40;;;22.50;99.90;;;;;;4883246;29;20651;-53
2022/08/28 08:21:51;;;;;;;7.33;2.47;;;23.10;99.90;;;;;;4885394;29;20241;-52
2022/08/28 08:24:24;;;;;;;6.90;2.53;;;23.60;99.90;;;;;;4888520;29;20230;-53
2022/08/28 08:26:56;;;;;;;7.93;2.47;;;23.90;99.90;;;;;;4886284;29;20320;-53
2022/08/28 08:29:30;;;;;;;8.10;2.17;;;23.40;99.90;;;;;;4887268;29;20236;-52
2022/08/28 08:32:03;;;;;;;5.80;2.07;;;22.60;99.90;;;;;;4887703;29;20252;-50
2022/08/28 08:34:32;;;;;;;7.00;2.23;;;22.00;99.90;;;;;;4885143;29;20231;-51
2022/08/28 08:37:01;;;;;;;9.87;2.07;;;21.70;99.90;;;;;;4883750;29;20607;-52
2022/08/28 08:39:29;;;;;;;6.97;2.30;;;21.60;99.90;;;;;;4862581;29;20728;-54
2022/08/28 08:42:02;;;;;;;9.20;2.60;;;21.60;99.90;;;;;;4857986;29;20242;-52
2022/08/28 08:44:34;;;;;;;8.87;2.23;;;21.60;99.90;;;;;;4865824;29;20226;-53
2022/08/28 08:47:12;;;;;;;6.50;2.07;;;21.60;99.90;;;;;;4865498;29;20623;-51
2022/08/28 08:49:49;;;;;;;8.00;2.30;;;22.00;99.90;;;;;;4861724;29;20262;-53
2022/08/28 08:52:27;;;;;;;7.80;2.60;;;21.90;99.90;;;;;;4874858;29;20613;-54
2022/08/28 08:55:08;;;;;;;6.23;2.40;;;21.70;99.90;;;;;;4864090;29;20706;-50
2022/08/28 08:57:38;;;;;;;8.47;2.30;;;21.50;99.90;;;;;;4860852;29;20237;-52
2022/08/28 09:00:09;;;;;;;11.87;2.63;;;21.30;99.90;;;;;;4862680;29;20698;-50
2022/08/28 09:02:50;;;;;;;7.90;2.20;;;21.20;99.90;;;;;;4863613;29;20344;-50
2022/08/28 09:05:21;;;;;;;7.37;2.43;;;21.50;99.90;;;;;;4872912;29;20241;-49
2022/08/28 09:07:55;;;;;;;8.47;2.50;;;22.20;99.90;;;;;;4885221;29;20241;-50
2022/08/28 09:10:27;;;;;;;8.03;2.40;;;22.80;99.90;;;;;;4880805;29;20243;-49
2022/08/28 09:13:01;;;;;;;9.07;2.30;;;22.60;99.90;;;;;;4881480;29;20246;-53
2022/08/28 09:15:32;;;;;;;5.57;2.40;;;22.40;99.90;;;;;;4882940;29;20316;-52
2022/08/28 09:18:10;;;;;;;7.63;2.10;;;22.10;99.90;;;;;;4884528;29;20712;-51
2022/08/28 09:20:39;;;;;;;5.53;2.03;;;22.00;99.90;;;;;;4884970;29;20259;-49
2022/08/28 09:23:08;;;;;;;6.67;2.43;;;21.90;99.90;;;;;;4884944;29;20903;-50
2022/08/28 09:25:50;;;;;;;7.83;2.50;;;21.90;99.90;;;;;;4884986;29;20242;-53
2022/08/28 09:28:24;;;;;;;8.10;2.40;;;22.00;99.90;;;;;;4883288;29;20249;-50
2022/08/28 09:30:56;;;;;;;7.53;1.97;;;21.90;99.90;;;;;;4882674;29;20649;-52
2022/08/28 09:33:44;;;;;;;6.33;2.40;;;22.00;99.90;;;;;;4886009;29;20340;-50
2022/08/28 09:36:30;;;;;;;9.90;2.70;;;22.60;99.90;;;;;;4872509;29;20229;-50
2022/08/28 09:39:14;;;;;;;5.90;2.57;;;23.00;99.90;;;;;;4884000;29;20242;-50
2022/08/28 09:44:50;;;;;;;8.90;2.40;;;22.50;99.90;;;;;;4883760;29;20236;-51
2022/08/28 09:47:43;;;;;;;8.83;2.43;;;21.90;99.90;;;;;;4884709;29;20338;-51
2022/08/28 09:50:32;;;;;;;12.27;2.60;;;21.80;99.90;;;;;;4878325;29;20674;-51
2022/08/28 09:53:19;;;;;;;8.33;3.20;;;21.60;99.90;;;;;;4869341;29;20563;-53
2022/08/28 09:56:02;;;;;;;7.27;3.13;;;21.40;99.90;;;;;;4870017;29;20256;-51
2022/08/28 09:58:34;;;;;;;7.80;2.40;;;21.60;99.90;;;;;;4862821;29;20234;-52
2022/08/28 10:01:18;;;;;;;7.77;2.50;;;21.50;99.90;;;;;;4871247;29;20811;-53
2022/08/28 10:03:56;;;;;;;8.57;2.97;;;21.60;99.90;;;;;;4870597;29;20238;-53
2022/08/28 10:06:28;;;;;;;7.63;2.40;;;21.70;99.90;;;;;;4872768;29;20699;-52
2022/08/28 10:09:11;;;;;;;7.10;2.63;;;22.40;99.90;;;;;;4870782;29;20242;-50
2022/08/28 10:11:46;;;;;;;5.93;2.50;;;23.30;99.90;;;;;;4869595;29;20234;-51
2022/08/28 10:14:30;;;;;;;6.13;2.30;;;24.10;99.90;;;;;;4871002;29;20264;-53
2022/08/28 10:17:16;;;;;;;8.43;2.90;;;23.70;99.90;;;;;;4871009;29;20325;-50
2022/08/28 10:19:54;;;;;;;7.00;2.90;;;23.10;99.90;;;;;;4869057;29;20253;-50
2022/08/28 10:22:31;;;;;;;5.07;2.40;;;22.50;99.90;;;;;;4870409;29;20241;-51
2022/08/28 10:25:13;;;;;;;6.00;3.10;;;22.10;99.90;;;;;;4869735;29;20244;-50
2022/08/28 10:27:53;;;;;;;7.20;3.17;;;22.10;99.90;;;;;;4873687;29;20298;-53
2022/08/28 10:30:24;;;;;;;7.17;3.30;;;22.00;99.90;;;;;;4872463;29;20673;-50
2022/08/28 10:33:06;;;;;;;8.40;3.00;;;22.00;99.90;;;;;;4873011;29;20245;-54
2022/08/28 10:35:43;;;;;;;7.87;2.80;;;22.00;99.90;;;;;;4874083;29;20237;-53
2022/08/28 10:38:15;;;;;;;8.37;3.23;;;22.10;99.90;;;;;;4872651;29;20293;-53
2022/08/28 10:40:53;;;;;;;7.73;3.30;;;22.50;99.90;;;;;;4872761;29;20238;-52
2022/08/28 10:43:30;;;;;;;7.03;2.67;;;22.70;99.90;;;;;;4866257;29;20234;-53
2022/08/28 10:46:03;;;;;;;8.13;3.13;;;23.20;99.90;;;;;;4873215;29;20233;-53
2022/08/28 10:48:39;;;;;;;7.07;2.93;;;23.00;99.90;;;;;;4871964;29;20246;-53
2022/08/28 10:51:13;;;;;;;7.27;3.30;;;22.90;99.90;;;;;;4873258;29;20243;-53
2022/08/28 10:53:45;;;;;;;8.70;2.93;;;23.20;99.90;;;;;;4873047;29;20233;-52
2022/08/28 10:56:17;;;;;;;6.43;3.00;;;23.50;99.90;;;;;;4873504;29;20235;-52
2022/08/28 10:58:50;;;;;;;8.80;3.50;;;23.40;99.90;;;;;;4872300;29;20711;-51
2022/08/28 11:01:25;;;;;;;6.47;3.00;;;22.90;99.90;;;;;;4872759;29;20246;-50
2022/08/28 11:03:59;;;;;;;7.10;3.33;;;22.50;99.90;;;;;;4874347;29;20230;-50
2022/08/28 11:06:33;;;;;;;8.63;3.80;;;22.90;99.90;;;;;;4858360;29;20260;-52
2022/08/28 11:11:50;;;;;;;5.63;2.77;;;24.20;99.90;;;;;;4872154;29;20240;-53
2022/08/28 11:14:27;;;;;;;6.30;3.40;;;24.90;99.90;;;;;;4873680;29;20234;-52
2022/08/28 11:16:58;;;;;;;7.83;3.30;;;25.40;99.90;;;;;;4872695;29;20230;-53
2022/08/28 11:19:52;;;;;;;6.47;3.23;;;25.00;99.90;;;;;;4872068;29;20868;-51
2022/08/28 11:22:23;;;;;;;7.97;3.07;;;24.60;99.90;;;;;;4874552;29;20713;-54
2022/08/28 11:24:59;;;;;;;7.23;3.10;;;24.10;99.90;;;;;;4872858;29;20248;-54
2022/08/28 11:27:38;;;;;;;5.33;3.03;;;24.10;99.90;;;;;;4865982;29;20239;-52
2022/08/28 11:30:31;;;;;;;8.87;3.40;;;24.40;99.90;;;;;;4872060;29;20238;-53
2022/08/28 11:33:34;;;;;;;5.90;3.37;;;24.90;99.90;;;;;;4873408;29;20670;-54
2022/08/28 11:36:04;;;;;;;6.90;3.70;;;24.80;99.90;;;;;;4872316;29;20238;-54
2022/08/28 11:39:02;;;;;;;6.53;3.30;;;24.20;99.90;;;;;;4871907;29;20232;-53
2022/08/28 11:41:33;;;;;;;9.43;3.70;;;23.60;99.90;;;;;;4872937;29;20240;-53
2022/08/28 11:44:41;;;;;;;7.87;3.83;;;23.40;99.90;;;;;;4874007;29;20235;-52
2022/08/28 11:47:35;;;;;;;8.70;3.60;;;23.30;99.90;;;;;;4833617;29;20242;-52
2022/08/28 11:50:10;;;;;;;6.90;3.33;;;23.20;99.90;;;;;;4833521;29;20810;-54
2022/08/28 11:53:16;;;;;;;7.00;3.40;;;23.20;99.90;;;;;;4861849;29;20241;-50
2022/08/28 11:56:05;;;;;;;6.47;3.33;;;23.30;99.90;;;;;;4872273;29;20287;-52
2022/08/28 11:58:39;;;;;;;6.03;3.07;;;23.70;99.90;;;;;;4871620;29;20230;-53
2022/08/28 12:01:13;;;;;;;7.10;3.57;;;23.80;99.90;;;;;;4872177;29;20257;-54
2022/08/28 12:03:43;;;;;;;6.33;3.43;;;23.30;99.90;;;;;;4871818;29;20587;-53
2022/08/28 12:06:13;;;;;;;6.17;3.23;;;23.40;99.90;;;;;;4872966;29;20233;-54
2022/08/28 12:09:12;;;;;;;6.73;2.80;;;23.40;99.90;;;;;;4872332;29;20294;-53
2022/08/28 12:11:54;;;;;;;5.30;3.17;;;23.40;99.90;;;;;;4872204;29;20234;-52
2022/08/28 12:15:06;;;;;;;10.63;3.33;;;23.50;99.90;;;;;;4873160;29;20687;-53
2022/08/28 12:18:01;;;;;;;7.73;3.27;;;23.70;99.90;;;;;;4882864;29;20241;-53
2022/08/28 12:20:38;;;;;;;6.73;3.20;;;23.90;99.90;;;;;;4873710;29;20263;-52
2022/08/28 12:23:31;;;;;;;7.40;3.30;;;23.90;99.90;;;;;;4886650;29;20239;-53
2022/08/28 12:26:03;;;;;;;8.33;3.43;;;23.80;99.90;;;;;;4885177;29;20622;-54
2022/08/28 12:28:33;;;;;;;7.50;3.27;;;23.40;99.90;;;;;;4873703;29;20250;-52
2022/08/28 12:32:10;;;;;;;6.67;3.23;;;23.00;99.90;;;;;;4871500;29;20246;-53
2022/08/28 12:34:26;;;;;;;7.27;3.30;;;22.80;99.90;;;;;;4872640;29;21122;-54
2022/08/28 12:36:59;;;;;;;7.47;3.50;;;22.70;99.90;;;;;;4871923;29;20237;-53
2022/08/28 12:39:30;;;;;;;6.53;3.20;;;22.80;99.90;;;;;;4871033;29;20242;-51
2022/08/28 12:42:01;;;;;;;7.20;3.23;;;22.80;99.90;;;;;;4872241;29;20264;-50
2022/08/28 12:44:32;;;;;;;6.90;3.37;;;23.10;99.90;;;;;;4871864;29;20248;-52
2022/08/28 12:47:00;;;;;;;7.87;3.23;;;23.30;99.90;;;;;;4871969;29;20610;-54
2022/08/28 12:49:32;;;;;;;6.00;3.10;;;22.90;99.90;;;;;;4869434;29;20299;-53
2022/08/28 12:52:14;;;;;;;7.87;3.63;;;22.70;99.90;;;;;;4871218;29;20241;-51
2022/08/28 12:54:45;;;;;;;5.87;3.20;;;22.90;99.90;;;;;;4871123;29;20712;-53
2022/08/28 12:57:17;;;;;;;7.10;3.50;;;22.90;99.90;;;;;;4870871;29;20236;-52
2022/08/28 12:59:47;;;;;;;7.80;3.00;;;22.80;99.90;;;;;;4871121;29;20234;-53
2022/08/28 13:02:25;;;;;;;7.03;3.77;;;22.70;99.90;;;;;;4870865;29;20246;-52
2022/08/28 13:04:57;;;;;;;5.50;3.53;;;22.50;99.90;;;;;;4871859;29;20376;-53
2022/08/28 13:07:29;;;;;;;8.03;3.50;;;22.40;99.90;;;;;;4872274;29;20230;-53
2022/08/28 13:09:59;;;;;;;9.17;3.63;;;22.50;99.90;;;;;;4869929;29;20742;-53
2022/08/28 13:12:33;;;;;;;9.67;3.03;;;22.30;99.90;;;;;;4870335;29;21015;-52
2022/08/28 13:15:51;;;;;;;8.63;3.17;;;22.40;99.90;;;;;;4872028;29;21026;-54
2022/08/28 13:18:38;;;;;;;7.87;3.37;;;22.50;99.90;;;;;;4871029;29;20246;-53
2022/08/28 13:21:31;;;;;;;11.37;3.77;;;22.70;99.90;;;;;;4872326;29;20288;-51
2022/08/28 13:24:24;;;;;;;9.27;3.40;;;22.40;99.90;;;;;;4872141;29;20289;-51
2022/08/28 13:27:02;;;;;;;7.33;3.33;;;22.00;99.90;;;;;;4871975;29;20241;-51